Terminal Aerodrome Forecast
Issued by NWS Pocatello, ID

Home | Current Version | Previous Version | Text Only | Print | Product List | Glossary On
Versions: 1 2 3 4 5 6 7 8 9 10 11 12 13 14 15 16
920
FTUS45 KPIH 261437 AAB
TAFPIH
TAF AMD
KPIH 261437Z 2615/2712 VRB06KT P6SM -SHRA SCT025 BKN040
     FM261600 24008KT P6SM -SHRA BKN020 OVC030
     FM261900 26011KT P6SM VCSH SCT030 BKN040
     FM262100 30010KT P6SM -SHRA VCTS BKN030CB
     FM270200 VRB06KT P6SM SCT040 BKN070=

USA.gov is the U.S. government's official web portal to all federal, state and local government web resources and services.